ADDS METAR Data INFO
IDs: Format: Raw Decoded Include TAF

Data at: 1900 UTC 22 Sep 2017

KGGG 221853Z 14010KT 10SM FEW050 33/21 A2998 RMK AO2 SLP144 T03280206
KGGG 221753Z 15007KT 10SM SCT032 32/21 A2999 RMK AO2 SLP149 T03170206 10322 20206 58012
KGGG 221653Z VRB03KT 10SM FEW032 30/23 A3001 RMK AO2 SLP155 T03000228

KGGG 221843Z 2219/2318 VRB03KT P6SM FEW035
  FM222000 15007KT P6SM SCT035 BKN050
  FM230000 15006KT P6SM SCT050
  FM230200 16003KT P6SM SKC
  FM230900 13003KT P6SM FEW015 SCT035
  FM231100 14003KT 5SM BR SCT015 BKN025
  FM231400 12004KT P6SM BKN035


KTYR 221853Z 14007G16KT 050V200 10SM CLR 32/18 A2998 RMK AO2 SLP145 T03220178
KTYR 221753Z 12005KT 10SM CLR 31/19 A3000 RMK AO2 SLP151 T03110189 10311 20228 58008
KTYR 221653Z 19008KT 10SM CLR 30/19 A3002 RMK AO2 SLP157 T03000194

KTYR 221850Z 2219/2318 14006KT P6SM SCT040
  FM222000 12007KT P6SM BKN045
  FM230000 14006KT P6SM SCT050
  FM230200 15003KT P6SM SKC
  FM230900 13003KT P6SM FEW015 SCT035
  FM231100 14003KT 5SM BR SCT015 BKN025
  FM231400 12004KT P6SM BKN035